createdAt,value
2023-03-02T00:00:47.564Z,36.63
2023-03-02T00:02:22.615Z,38.47
2023-03-02T00:03:58.992Z,32.53
2023-03-02T00:05:32.244Z,36.97
2023-03-02T00:07:08.034Z,36.65
2023-03-02T00:08:40.264Z,28.85
2023-03-02T00:10:11.853Z,35.92
2023-03-02T00:11:43.535Z,28.35
2023-03-02T00:13:15.458Z,36.80
2023-03-02T00:14:47.047Z,35.13
2023-03-02T00:16:18.867Z,36.80
2023-03-02T00:17:50.723Z,35.17
2023-03-02T00:19:22.314Z,33.08
2023-03-02T00:20:53.956Z,35.95
2023-03-02T00:22:25.582Z,34.63
2023-03-02T00:23:57.485Z,31.33
2023-03-02T00:25:28.998Z,34.55
2023-03-02T00:27:00.636Z,37.28
2023-03-02T00:28:33.158Z,32.97
2023-03-02T00:30:06.294Z,33.63
2023-03-02T00:31:38.396Z,33.90
2023-03-02T00:33:10.114Z,38.75
2023-03-02T00:34:41.714Z,37.45
2023-03-02T00:36:17.808Z,34.03
2023-03-02T00:37:49.543Z,35.25
2023-03-02T00:39:21.114Z,33.65
2023-03-02T00:40:52.694Z,38.97
2023-03-02T00:42:24.381Z,36.00
2023-03-02T00:43:56.186Z,37.25
2023-03-02T00:45:27.882Z,30.65
2023-03-02T00:46:59.631Z,30.65
2023-03-02T00:48:31.244Z,31.20
2023-03-02T00:50:04.570Z,36.53
2023-03-02T00:51:36.136Z,36.88
2023-03-02T00:53:09.306Z,34.25
2023-03-02T00:54:40.909Z,38.60
2023-03-02T00:56:12.725Z,36.90
2023-03-02T00:57:55.155Z,42.83
2023-03-02T00:59:31.693Z,34.55
2023-03-02T01:01:13.518Z,35.92
2023-03-02T01:02:50.535Z,31.83
2023-03-02T01:04:22.168Z,32.47
2023-03-02T01:05:56.289Z,36.30
2023-03-02T01:07:28.570Z,34.50
2023-03-02T01:09:00.359Z,33.35
2023-03-02T01:10:33.707Z,36.90
2023-03-02T01:12:09.259Z,33.22
2023-03-02T01:13:40.837Z,39.08
2023-03-02T01:15:12.848Z,33.65
2023-03-02T01:16:44.576Z,35.00
2023-03-02T01:18:16.345Z,30.77
2023-03-02T01:19:48.438Z,32.78
2023-03-02T01:21:20.025Z,39.88
2023-03-02T01:22:51.739Z,31.58
2023-03-02T01:24:23.709Z,36.80
2023-03-02T01:25:55.321Z,36.42
2023-03-02T01:27:26.939Z,42.63
2023-03-02T01:28:58.616Z,37.03
2023-03-02T01:30:30.214Z,40.00
2023-03-02T01:32:02.189Z,34.92
2023-03-02T01:33:34.128Z,32.85
2023-03-02T01:35:06.158Z,35.28
2023-03-02T01:36:37.803Z,35.42
2023-03-02T01:38:09.592Z,35.08
2023-03-02T01:39:41.510Z,35.80
2023-03-02T01:41:14.815Z,35.67
2023-03-02T01:42:52.749Z,30.85
2023-03-02T01:44:42.388Z,37.40
2023-03-02T01:46:18.134Z,36.95
2023-03-02T01:47:53.827Z,38.63
2023-03-02T01:49:25.647Z,31.35
2023-03-02T01:51:04.350Z,32.05
2023-03-02T01:52:38.441Z,39.42
2023-03-02T01:54:17.349Z,37.42
2023-03-02T01:55:49.172Z,33.67
2023-03-02T01:57:25.794Z,33.95
2023-03-02T01:59:02.465Z,33.08
2023-03-02T02:00:38.304Z,34.85
2023-03-02T02:02:12.585Z,38.60
2023-03-02T02:03:46.917Z,30.25
2023-03-02T02:05:22.910Z,35.95
2023-03-02T02:07:00.664Z,37.47
2023-03-02T02:08:32.854Z,39.08
2023-03-02T02:10:05.282Z,30.98
2023-03-02T02:11:36.960Z,33.47
2023-03-02T02:13:11.509Z,35.00
2023-03-02T02:14:43.912Z,37.60
2023-03-02T02:16:16.043Z,36.75
2023-03-02T02:17:48.452Z,31.98
2023-03-02T02:19:58.341Z,35.42
2023-03-02T02:21:30.625Z,27.65
2023-03-02T02:23:17.529Z,30.90
2023-03-02T02:24:58.718Z,30.90
2023-03-02T02:26:38.629Z,34.40
2023-03-02T02:28:23.287Z,32.22
2023-03-02T02:29:58.210Z,37.08
2023-03-02T02:31:44.889Z,26.23
2023-03-02T02:33:23.656Z,35.08
2023-03-02T02:35:03.859Z,33.83
2023-03-02T02:36:40.593Z,33.25
2023-03-02T02:38:19.690Z,41.75
2023-03-02T02:39:51.873Z,33.80
2023-03-02T02:41:30.812Z,35.08
2023-03-02T02:43:02.738Z,31.75
2023-03-02T02:44:34.264Z,36.08
2023-03-02T02:46:05.930Z,34.42
2023-03-02T02:47:38.074Z,36.25
2023-03-02T02:49:25.376Z,35.05
2023-03-02T02:51:02.941Z,37.92
2023-03-02T02:52:34.988Z,28.10
2023-03-02T02:54:06.578Z,31.45
2023-03-02T02:55:42.696Z,35.97
2023-03-02T02:57:19.103Z,38.95
2023-03-02T02:58:53.887Z,36.70
2023-03-02T03:00:26.184Z,42.30
2023-03-02T03:01:58.572Z,35.60
2023-03-02T03:03:33.729Z,36.38
2023-03-02T03:05:14.624Z,34.78
2023-03-02T03:06:59.869Z,40.42
2023-03-02T03:08:43.575Z,33.63
2023-03-02T03:10:40.052Z,34.40
2023-03-02T03:12:22.129Z,33.22
2023-03-02T03:14:15.576Z,34.08
2023-03-02T03:15:49.175Z,34.58
2023-03-02T03:17:21.045Z,35.33
2023-03-02T03:19:05.589Z,32.03
2023-03-02T03:20:37.325Z,37.67
2023-03-02T03:22:11.908Z,34.33
2023-03-02T03:23:45.040Z,34.72
2023-03-02T03:25:16.845Z,35.28
2023-03-02T03:26:54.204Z,39.33
2023-03-02T03:28:26.138Z,34.65
2023-03-02T03:29:57.877Z,37.13
2023-03-02T03:31:29.496Z,37.30
2023-03-02T03:33:01.954Z,36.70
2023-03-02T03:34:40.637Z,37.40
2023-03-02T03:36:18.071Z,38.40
2023-03-02T03:37:49.837Z,41.20
2023-03-02T03:39:22.884Z,39.30
2023-03-02T03:40:55.393Z,37.20
2023-03-02T03:42:27.369Z,40.53
2023-03-02T03:44:00.702Z,37.90
2023-03-02T03:45:34.049Z,40.78
2023-03-02T03:47:05.927Z,36.95
2023-03-02T03:48:38.437Z,39.05
2023-03-02T03:50:10.881Z,41.47
2023-03-02T03:51:43.012Z,40.33
2023-03-02T03:53:14.684Z,36.80
2023-03-02T03:54:46.558Z,39.33
2023-03-02T03:56:18.143Z,39.97
2023-03-02T03:57:49.941Z,35.25
2023-03-02T03:59:24.338Z,41.28
2023-03-02T04:01:00.782Z,36.35
2023-03-02T04:02:32.411Z,37.72
2023-03-02T04:04:05.674Z,35.17
2023-03-02T04:05:37.273Z,37.53
2023-03-02T04:07:09.594Z,35.03
2023-03-02T04:08:41.961Z,36.90
2023-03-02T04:10:13.730Z,37.55
2023-03-02T04:11:49.328Z,38.17
2023-03-02T04:13:21.368Z,39.15
2023-03-02T04:14:53.254Z,34.72
2023-03-02T04:16:24.952Z,34.33
2023-03-02T04:17:56.716Z,36.58
2023-03-02T04:19:28.960Z,40.50
2023-03-02T04:21:02.546Z,38.58
2023-03-02T04:22:34.198Z,34.15
2023-03-02T04:24:07.172Z,38.63
2023-03-02T04:25:38.811Z,40.42
2023-03-02T04:27:18.880Z,36.08
2023-03-02T04:28:50.912Z,33.88
2023-03-02T04:30:25.959Z,43.25
2023-03-02T04:31:58.326Z,37.22
2023-03-02T04:33:31.361Z,38.08
2023-03-02T04:35:03.471Z,35.55
2023-03-02T04:36:38.650Z,36.33
2023-03-02T04:38:13.782Z,37.45
2023-03-02T04:39:50.107Z,42.38
2023-03-02T04:41:21.909Z,38.60
2023-03-02T04:42:53.432Z,34.95
2023-03-02T04:44:24.951Z,36.05
2023-03-02T04:45:56.504Z,40.30
2023-03-02T04:47:28.122Z,33.60
2023-03-02T04:49:00.216Z,39.78
2023-03-02T04:50:31.872Z,33.67
2023-03-02T04:52:04.409Z,35.88
2023-03-02T04:53:36.052Z,41.65
2023-03-02T04:55:08.058Z,36.83
2023-03-02T04:56:40.143Z,36.97
2023-03-02T04:58:11.913Z,37.55
2023-03-02T04:59:43.468Z,41.25
2023-03-02T05:01:17.542Z,41.80
2023-03-02T05:02:49.135Z,44.90
2023-03-02T05:04:21.344Z,41.97
2023-03-02T05:05:52.966Z,40.95
2023-03-02T05:07:24.583Z,38.58
2023-03-02T05:08:59.802Z,39.15
2023-03-02T05:10:31.581Z,40.15
2023-03-02T05:12:03.338Z,42.50
2023-03-02T05:13:35.369Z,37.78
2023-03-02T05:15:07.408Z,38.08
2023-03-02T05:16:41.227Z,38.83
2023-03-02T05:18:13.387Z,35.03
2023-03-02T05:19:45.049Z,35.10
2023-03-02T05:21:17.626Z,39.70
2023-03-02T05:22:49.327Z,28.55
2023-03-02T05:24:20.917Z,37.72
2023-03-02T05:25:54.733Z,35.35
2023-03-02T05:27:26.300Z,34.88
2023-03-02T05:28:58.060Z,36.58
2023-03-02T05:30:30.997Z,35.15
2023-03-02T05:32:02.705Z,38.58
2023-03-02T05:33:34.793Z,39.80
2023-03-02T05:35:06.995Z,32.85
2023-03-02T05:36:39.307Z,36.28
2023-03-02T05:38:11.721Z,36.63
2023-03-02T05:39:43.301Z,34.78
2023-03-02T05:41:15.247Z,37.60
2023-03-02T05:42:46.880Z,33.53
2023-03-02T05:44:18.532Z,38.78
2023-03-02T05:45:50.132Z,33.85
2023-03-02T05:47:21.731Z,38.58
2023-03-02T05:48:53.731Z,35.83
2023-03-02T05:50:25.347Z,33.60
2023-03-02T05:51:57.128Z,39.03
2023-03-02T05:53:29.861Z,38.53
2023-03-02T05:55:01.888Z,37.95
2023-03-02T05:56:33.821Z,35.03
2023-03-02T05:58:12.897Z,38.08
2023-03-02T05:59:46.426Z,39.35
2023-03-02T06:01:18.048Z,37.10
2023-03-02T06:02:49.770Z,35.95
2023-03-02T06:04:21.454Z,40.08
2023-03-02T06:05:53.183Z,39.50
2023-03-02T06:07:24.883Z,33.05
2023-03-02T06:08:56.501Z,40.90
2023-03-02T06:10:28.436Z,37.50
2023-03-02T06:12:00.099Z,37.75
2023-03-02T06:13:31.807Z,41.75
2023-03-02T06:15:04.874Z,39.53
2023-03-02T06:16:37.301Z,36.10
2023-03-02T06:18:08.943Z,37.88
2023-03-02T06:19:40.514Z,35.53
2023-03-02T06:21:12.090Z,41.33
2023-03-02T06:22:46.010Z,35.03
2023-03-02T06:24:17.694Z,36.25
2023-03-02T06:25:49.411Z,35.47
2023-03-02T06:27:21.557Z,39.10
2023-03-02T06:28:54.012Z,39.05
2023-03-02T06:30:27.571Z,40.42
2023-03-02T06:31:59.274Z,38.22
2023-03-02T06:33:31.368Z,39.28
2023-03-02T06:35:05.774Z,37.55
2023-03-02T06:36:40.120Z,44.22
2023-03-02T06:38:11.994Z,36.88
2023-03-02T06:39:43.555Z,35.17
2023-03-02T06:41:15.492Z,39.38
2023-03-02T06:42:47.294Z,37.78
2023-03-02T06:44:19.153Z,34.35
2023-03-02T06:45:51.067Z,39.47
2023-03-02T06:47:23.522Z,38.20
2023-03-02T06:48:55.192Z,36.15
2023-03-02T06:50:28.256Z,35.80
2023-03-02T06:51:59.763Z,43.42
2023-03-02T06:53:31.313Z,38.00
2023-03-02T06:55:03.807Z,38.97
2023-03-02T06:56:35.683Z,37.95
2023-03-02T06:58:07.310Z,37.75
2023-03-02T06:59:38.964Z,42.05
2023-03-02T07:01:10.627Z,34.25
2023-03-02T07:02:42.619Z,40.88
2023-03-02T07:04:14.205Z,38.40
2023-03-02T07:05:46.459Z,40.47
2023-03-02T07:07:18.174Z,41.85
2023-03-02T07:08:49.797Z,37.17
2023-03-02T07:10:21.470Z,39.97
2023-03-02T07:11:53.162Z,43.47
2023-03-02T07:13:25.213Z,39.40
2023-03-02T07:14:57.067Z,34.88
2023-03-02T07:16:28.940Z,40.65
2023-03-02T07:18:00.603Z,36.47
2023-03-02T07:19:32.245Z,37.92
2023-03-02T07:21:04.068Z,46.45
2023-03-02T07:22:36.121Z,35.97
2023-03-02T07:24:08.258Z,38.75
2023-03-02T07:25:39.928Z,42.10
2023-03-02T07:27:11.593Z,41.63
2023-03-02T07:28:44.450Z,41.25
2023-03-02T07:30:18.973Z,35.15
2023-03-02T07:31:56.996Z,40.63
2023-03-02T07:33:29.157Z,40.78
2023-03-02T07:35:00.938Z,32.35
2023-03-02T07:36:32.517Z,45.50
2023-03-02T07:38:04.115Z,40.28
2023-03-02T07:39:35.658Z,43.30
2023-03-02T07:41:10.393Z,37.83
2023-03-02T07:42:42.144Z,43.53
2023-03-02T07:44:13.985Z,38.53
2023-03-02T07:45:45.955Z,42.58
2023-03-02T07:47:17.504Z,37.17
2023-03-02T07:48:49.183Z,34.85
2023-03-02T07:50:20.905Z,37.45
2023-03-02T07:51:52.666Z,39.30
2023-03-02T07:53:24.547Z,36.67
2023-03-02T07:54:56.575Z,46.72
2023-03-02T07:56:28.222Z,37.08
2023-03-02T07:57:59.881Z,37.55
2023-03-02T07:59:31.753Z,35.92
2023-03-02T08:01:04.484Z,39.28
2023-03-02T08:02:36.281Z,39.65
2023-03-02T08:04:08.081Z,38.58
2023-03-02T08:05:39.714Z,38.80
2023-03-02T08:07:11.360Z,36.63
2023-03-02T08:08:43.000Z,33.22
2023-03-02T08:10:14.870Z,41.13
2023-03-02T08:11:47.901Z,40.67
2023-03-02T08:13:19.761Z,36.92
2023-03-02T08:14:51.475Z,39.97
2023-03-02T08:16:25.811Z,43.70
2023-03-02T08:17:57.836Z,37.22
2023-03-02T08:19:29.525Z,36.47
2023-03-02T08:21:01.202Z,36.92
2023-03-02T08:22:32.950Z,41.30
2023-03-02T08:24:05.537Z,32.70
2023-03-02T08:25:38.611Z,29.15
2023-03-02T08:27:15.133Z,38.53
2023-03-02T08:28:47.529Z,37.90
2023-03-02T08:30:19.449Z,34.25
2023-03-02T08:31:51.253Z,31.67
2023-03-02T08:33:22.896Z,38.38
2023-03-02T08:34:54.586Z,39.63
2023-03-02T08:36:26.517Z,35.33
2023-03-02T08:37:59.756Z,37.78
2023-03-02T08:39:32.279Z,35.80
2023-03-02T08:41:11.318Z,36.63
2023-03-02T08:42:42.958Z,36.80
2023-03-02T08:44:14.658Z,37.38
2023-03-02T08:45:50.567Z,32.45
2023-03-02T08:47:22.218Z,33.60
2023-03-02T08:48:53.915Z,33.90
2023-03-02T08:50:25.569Z,43.70
2023-03-02T08:51:59.194Z,33.28
2023-03-02T08:53:33.177Z,35.08
2023-03-02T08:55:05.570Z,36.70
2023-03-02T08:56:39.475Z,36.53
2023-03-02T08:58:11.092Z,37.15
2023-03-02T08:59:42.944Z,33.47
2023-03-02T09:01:26.329Z,38.97
2023-03-02T09:02:58.000Z,37.70
2023-03-02T09:04:29.671Z,36.40
2023-03-02T09:06:01.487Z,34.17
2023-03-02T09:07:33.270Z,36.92
2023-03-02T09:09:06.039Z,38.15
2023-03-02T09:10:37.959Z,39.30
2023-03-02T09:12:09.679Z,35.92
2023-03-02T09:13:42.161Z,43.05
2023-03-02T09:15:13.884Z,34.78
2023-03-02T09:16:46.286Z,32.40
2023-03-02T09:18:18.037Z,36.33
2023-03-02T09:19:49.683Z,37.15
2023-03-02T09:21:22.343Z,39.20
2023-03-02T09:22:54.004Z,32.85
2023-03-02T09:24:25.755Z,38.63
2023-03-02T09:25:57.450Z,37.38
2023-03-02T09:27:29.313Z,43.55
2023-03-02T09:29:01.109Z,43.47
2023-03-02T09:30:32.981Z,38.20
2023-03-02T09:32:04.986Z,40.15
2023-03-02T09:33:36.738Z,36.28
2023-03-02T09:35:08.991Z,47.15
2023-03-02T09:36:40.662Z,33.30
2023-03-02T09:38:16.103Z,38.90
2023-03-02T09:39:47.909Z,39.13
2023-03-02T09:41:29.974Z,37.53
2023-03-02T09:43:13.595Z,36.05
2023-03-02T09:45:13.525Z,40.72
2023-03-02T09:46:54.170Z,35.58
2023-03-02T09:49:04.230Z,37.95
2023-03-02T09:50:40.145Z,38.20
2023-03-02T09:52:33.821Z,34.70
2023-03-02T09:54:10.628Z,37.33
2023-03-02T09:55:42.283Z,31.20
2023-03-02T09:57:21.970Z,39.45
2023-03-02T09:59:03.252Z,38.95
2023-03-02T10:00:38.429Z,36.85
2023-03-02T10:02:28.249Z,37.85
2023-03-02T10:04:27.702Z,37.50
2023-03-02T10:05:59.427Z,36.17
2023-03-02T10:07:31.016Z,39.90
2023-03-02T10:09:02.797Z,36.65
2023-03-02T10:11:08.373Z,39.85
2023-03-02T10:12:52.163Z,39.28
2023-03-02T10:14:30.735Z,30.95
2023-03-02T10:16:13.780Z,35.88
2023-03-02T10:18:21.155Z,37.92
2023-03-02T10:20:27.597Z,36.78
2023-03-02T10:22:14.314Z,39.65
2023-03-02T10:23:57.264Z,166.65
2023-03-02T10:25:52.010Z,55.15
2023-03-02T10:27:41.745Z,40.78
2023-03-02T10:29:35.017Z,40.08
2023-03-02T10:31:33.797Z,42.10
2023-03-02T10:33:17.670Z,31.98
2023-03-02T10:34:53.216Z,35.65
2023-03-02T10:36:28.470Z,41.90
2023-03-02T10:38:13.069Z,33.90
2023-03-02T10:39:44.802Z,37.25
2023-03-02T10:41:33.273Z,42.22
2023-03-02T10:43:09.644Z,34.55
2023-03-02T10:44:50.419Z,38.92
2023-03-02T10:46:22.246Z,36.28
2023-03-02T10:48:06.218Z,38.83
2023-03-02T10:49:42.842Z,33.38
2023-03-02T10:51:26.549Z,38.45
2023-03-02T10:53:01.065Z,39.50
2023-03-02T10:54:35.342Z,42.58
2023-03-02T10:56:22.829Z,43.72
2023-03-02T10:58:21.214Z,35.97
2023-03-02T10:59:53.080Z,38.90
2023-03-02T11:01:24.792Z,34.25
2023-03-02T11:03:02.135Z,36.13
2023-03-02T11:04:34.927Z,35.35
2023-03-02T11:06:20.807Z,38.78
2023-03-02T11:08:03.169Z,36.63
2023-03-02T11:11:22.977Z,35.70
2023-03-02T11:12:55.031Z,36.17
2023-03-02T11:14:29.792Z,34.28
2023-03-02T11:16:23.942Z,36.42
2023-03-02T11:18:03.874Z,38.97
2023-03-02T11:19:39.521Z,45.25
2023-03-02T11:21:25.964Z,35.30
2023-03-02T11:23:31.615Z,36.80
2023-03-02T11:25:08.283Z,36.80
2023-03-02T11:26:48.129Z,35.92
2023-03-02T11:28:33.618Z,34.53
2023-03-02T11:30:20.281Z,35.25
2023-03-02T11:32:13.636Z,42.03
2023-03-02T11:34:15.646Z,42.78
2023-03-02T11:35:59.897Z,33.58
2023-03-02T11:39:39.166Z,36.78
2023-03-02T11:41:29.526Z,35.55
2023-03-02T11:43:04.883Z,35.65
2023-03-02T11:44:36.479Z,38.67
2023-03-02T11:46:23.358Z,37.63
2023-03-02T11:48:08.419Z,40.05
2023-03-02T11:49:46.153Z,44.78
2023-03-02T11:51:23.518Z,41.25
2023-03-02T11:52:59.344Z,40.28
2023-03-02T11:54:44.419Z,34.97
2023-03-02T11:56:16.159Z,39.35
2023-03-02T11:57:52.457Z,39.63
2023-03-02T11:59:27.521Z,33.40
2023-03-02T12:01:02.046Z,40.47
2023-03-02T12:02:33.660Z,38.22
2023-03-02T12:04:36.507Z,36.90
2023-03-02T12:06:26.935Z,31.00
2023-03-02T12:08:00.863Z,38.75
2023-03-02T12:09:37.618Z,34.03
2023-03-02T12:11:18.121Z,37.83
2023-03-02T12:13:00.504Z,35.15
2023-03-02T12:16:38.140Z,37.10
2023-03-02T12:18:26.583Z,35.97
2023-03-02T12:20:07.441Z,34.65
2023-03-02T12:21:41.483Z,40.25
2023-03-02T12:23:24.958Z,36.00
2023-03-02T12:25:03.989Z,39.72
2023-03-02T12:26:37.997Z,35.90
2023-03-02T12:28:27.266Z,34.22
2023-03-02T12:30:24.529Z,40.38
2023-03-02T12:31:57.049Z,34.42
2023-03-02T12:33:29.044Z,33.72
2023-03-02T12:35:10.743Z,33.17
2023-03-02T12:36:44.259Z,36.33
2023-03-02T12:38:36.911Z,32.25
2023-03-02T12:40:08.492Z,36.45
2023-03-02T12:41:50.312Z,33.38
2023-03-02T12:43:37.958Z,34.97
2023-03-02T12:45:35.816Z,32.17
2023-03-02T12:47:16.402Z,35.55
2023-03-02T12:49:13.689Z,39.75
2023-03-02T12:50:47.389Z,36.85
2023-03-02T12:52:27.866Z,38.40
2023-03-02T12:54:07.493Z,33.42
2023-03-02T12:55:39.075Z,34.75
2023-03-02T12:57:20.067Z,32.90
2023-03-02T12:58:52.886Z,39.38
2023-03-02T13:00:27.819Z,35.70
2023-03-02T13:02:11.146Z,43.08
2023-03-02T13:03:47.871Z,39.35
2023-03-02T13:05:25.793Z,32.25
2023-03-02T13:06:57.508Z,38.67
2023-03-02T13:08:30.234Z,36.63
2023-03-02T13:10:06.644Z,35.20
2023-03-02T13:11:38.843Z,37.65
2023-03-02T13:13:35.595Z,37.03
2023-03-02T13:15:15.552Z,46.00
2023-03-02T13:16:59.296Z,46.20
2023-03-02T13:18:36.801Z,37.75
2023-03-02T13:20:13.253Z,40.13
2023-03-02T13:21:44.980Z,44.22
2023-03-02T13:23:17.916Z,41.22
2023-03-02T13:24:55.549Z,40.38
2023-03-02T13:26:35.191Z,44.20
2023-03-02T13:28:24.414Z,40.70
2023-03-02T13:29:56.667Z,39.33
2023-03-02T13:31:29.288Z,41.55
2023-03-02T13:33:04.051Z,37.17
2023-03-02T13:34:36.267Z,42.17
2023-03-02T13:36:08.061Z,36.28
2023-03-02T13:37:43.899Z,37.50
2023-03-02T13:39:22.505Z,42.80
2023-03-02T13:40:55.841Z,46.10
2023-03-02T13:42:40.952Z,42.00
2023-03-02T13:44:23.123Z,41.95
2023-03-02T13:46:00.358Z,41.00
2023-03-02T13:47:31.987Z,33.67
2023-03-02T13:49:11.265Z,40.85
2023-03-02T13:50:56.680Z,33.85
2023-03-02T13:52:30.850Z,34.55
2023-03-02T13:54:06.058Z,42.53
2023-03-02T13:55:39.715Z,36.28
2023-03-02T13:57:16.534Z,40.05
2023-03-02T13:58:48.261Z,46.63
2023-03-02T14:00:26.678Z,36.08
2023-03-02T14:01:58.780Z,36.10
2023-03-02T14:03:31.291Z,41.35
2023-03-02T14:05:03.134Z,44.60
2023-03-02T14:06:35.122Z,45.58
2023-03-02T14:08:07.578Z,49.60
2023-03-02T14:09:39.222Z,44.20
2023-03-02T14:11:11.493Z,45.08
2023-03-02T14:12:51.172Z,43.17
2023-03-02T14:14:26.000Z,39.85
2023-03-02T14:15:57.618Z,39.55
2023-03-02T14:17:29.598Z,42.55
2023-03-02T14:19:02.020Z,35.28
2023-03-02T14:20:33.620Z,44.85
2023-03-02T14:22:05.264Z,46.75
2023-03-02T14:23:36.883Z,40.08
2023-03-02T14:25:08.812Z,44.25
2023-03-02T14:26:48.767Z,42.53
2023-03-02T14:28:33.214Z,45.75
2023-03-02T14:30:17.166Z,47.30
2023-03-02T14:31:49.336Z,47.33
2023-03-02T14:33:22.095Z,41.33
2023-03-02T14:34:53.807Z,40.22
2023-03-02T14:36:34.634Z,43.00
2023-03-02T14:38:06.364Z,40.88
2023-03-02T14:39:40.442Z,39.55
2023-03-02T14:41:24.283Z,40.50
2023-03-02T14:42:55.943Z,39.28
2023-03-02T14:44:27.765Z,41.75
2023-03-02T14:45:59.490Z,44.13
2023-03-02T14:47:31.945Z,43.88
2023-03-02T14:49:03.642Z,40.75
2023-03-02T14:50:39.856Z,42.80
2023-03-02T14:52:25.019Z,40.47
2023-03-02T14:54:00.235Z,41.75
2023-03-02T14:55:33.111Z,44.63
2023-03-02T14:57:07.915Z,37.63
2023-03-02T14:58:39.596Z,39.70
2023-03-02T15:00:15.437Z,39.30
2023-03-02T15:01:47.136Z,40.63
2023-03-02T15:03:22.676Z,43.85
2023-03-02T15:04:57.859Z,41.63
2023-03-02T15:06:32.073Z,41.08
2023-03-02T15:08:04.206Z,38.78
2023-03-02T15:09:35.824Z,40.97
2023-03-02T15:11:07.342Z,44.17
2023-03-02T15:12:38.919Z,43.30
2023-03-02T15:14:10.485Z,41.65
2023-03-02T15:15:44.563Z,39.47
2023-03-02T15:17:16.172Z,41.53
2023-03-02T15:18:52.621Z,36.30
2023-03-02T15:20:24.677Z,39.45
2023-03-02T15:21:57.458Z,40.63
2023-03-02T15:23:29.204Z,34.67
2023-03-02T15:25:00.906Z,42.92
2023-03-02T15:26:32.602Z,46.53
2023-03-02T15:28:04.673Z,40.75
2023-03-02T15:29:36.896Z,37.83
2023-03-02T15:31:15.969Z,43.67
2023-03-02T15:32:48.788Z,41.97
2023-03-02T15:34:20.948Z,42.65
2023-03-02T15:35:55.436Z,46.15
2023-03-02T15:37:27.610Z,43.33
2023-03-02T15:38:59.345Z,42.88
2023-03-02T15:40:31.357Z,38.05
2023-03-02T15:42:03.432Z,42.58
2023-03-02T15:43:35.169Z,39.17
2023-03-02T15:45:07.288Z,38.25
2023-03-02T15:46:39.192Z,36.38
2023-03-02T15:48:12.720Z,43.08
2023-03-02T15:49:45.723Z,45.72
2023-03-02T15:51:18.339Z,48.72
2023-03-02T15:52:51.961Z,45.63
2023-03-02T15:54:25.315Z,38.00
2023-03-02T15:55:57.281Z,45.15
2023-03-02T15:57:28.981Z,42.05
2023-03-02T15:59:00.757Z,40.83
2023-03-02T16:00:35.218Z,39.15
2023-03-02T16:02:07.391Z,45.50
2023-03-02T16:03:39.408Z,48.20
2023-03-02T16:05:11.412Z,38.65
2023-03-02T16:06:43.490Z,41.33
2023-03-02T16:08:15.467Z,48.88
2023-03-02T16:09:47.753Z,43.05
2023-03-02T16:11:23.378Z,42.70
2023-03-02T16:12:55.428Z,46.72
2023-03-02T16:14:27.589Z,40.13
2023-03-02T16:16:04.848Z,45.97
2023-03-02T16:17:36.607Z,46.53
2023-03-02T16:19:12.023Z,41.10
2023-03-02T16:20:44.191Z,39.05
2023-03-02T16:22:16.346Z,42.20
2023-03-02T16:23:48.757Z,44.92
2023-03-02T16:25:21.634Z,45.53
2023-03-02T16:26:54.058Z,49.40
2023-03-02T16:28:26.240Z,37.55
2023-03-02T16:29:58.157Z,44.40
2023-03-02T16:31:33.104Z,41.92
2023-03-02T16:33:08.278Z,41.38
2023-03-02T16:34:40.185Z,44.67
2023-03-02T16:36:13.083Z,41.22
2023-03-02T16:37:44.989Z,46.83
2023-03-02T16:39:17.281Z,44.60
2023-03-02T16:40:50.289Z,38.78
2023-03-02T16:42:21.895Z,45.85
2023-03-02T16:43:56.314Z,46.22
2023-03-02T16:45:28.167Z,43.30
2023-03-02T16:46:59.874Z,40.72
2023-03-02T16:48:31.467Z,42.55
2023-03-02T16:50:04.166Z,38.03
2023-03-02T16:51:36.151Z,47.10
2023-03-02T16:53:07.859Z,42.90
2023-03-02T16:54:39.497Z,52.40
2023-03-02T16:56:13.012Z,42.95
2023-03-02T16:57:45.086Z,46.53
2023-03-02T16:59:17.191Z,46.17
2023-03-02T17:00:49.330Z,42.67
2023-03-02T17:02:21.205Z,40.17
2023-03-02T17:03:53.024Z,48.17
2023-03-02T17:05:24.741Z,49.83
2023-03-02T17:07:00.865Z,45.60
2023-03-02T17:08:32.944Z,46.10
2023-03-02T17:10:06.287Z,46.53
2023-03-02T17:11:38.023Z,40.58
2023-03-02T17:13:12.042Z,59.83
2023-03-02T17:14:43.715Z,55.47
2023-03-02T17:16:16.826Z,45.67
2023-03-02T17:17:48.481Z,46.78
2023-03-02T17:19:22.278Z,48.70
2023-03-02T17:20:55.496Z,42.95
2023-03-02T17:22:27.248Z,41.42
2023-03-02T17:23:58.999Z,49.05
2023-03-02T17:25:30.911Z,44.35
2023-03-02T17:27:03.387Z,47.67
2023-03-02T17:28:35.993Z,44.38
2023-03-02T17:30:08.467Z,43.97
2023-03-02T17:31:40.187Z,56.55
2023-03-02T17:33:12.412Z,40.00
2023-03-02T17:34:44.150Z,39.78
2023-03-02T17:36:15.955Z,39.58
2023-03-02T17:37:48.024Z,43.35
2023-03-02T17:39:20.023Z,44.75
2023-03-02T17:40:51.836Z,45.90
2023-03-02T17:42:23.557Z,45.85
2023-03-02T17:43:55.419Z,42.15
2023-03-02T17:45:28.617Z,43.92
2023-03-02T17:47:05.356Z,46.13
2023-03-02T17:48:37.022Z,45.95
2023-03-02T17:50:09.385Z,46.22
2023-03-02T17:51:41.180Z,47.20
2023-03-02T17:53:12.901Z,42.70
2023-03-02T17:54:45.096Z,44.33
2023-03-02T17:56:19.788Z,50.35
2023-03-02T17:57:51.703Z,47.35
2023-03-02T17:59:23.505Z,47.80
2023-03-02T18:00:55.166Z,46.17
2023-03-02T18:02:27.041Z,50.28
2023-03-02T18:03:59.301Z,47.97
2023-03-02T18:05:31.177Z,52.88
2023-03-02T18:07:02.798Z,43.17
2023-03-02T18:08:34.473Z,51.55
2023-03-02T18:10:07.342Z,42.30
2023-03-02T18:11:41.439Z,53.65
2023-03-02T18:13:13.305Z,51.22
2023-03-02T18:14:45.113Z,50.53
2023-03-02T18:16:17.025Z,57.85
2023-03-02T18:17:48.857Z,57.95
2023-03-02T18:19:20.566Z,62.17
2023-03-02T18:20:55.205Z,50.13
2023-03-02T18:22:27.111Z,51.65
2023-03-02T18:23:58.942Z,56.72
2023-03-02T18:25:30.709Z,50.17
2023-03-02T18:27:02.610Z,58.85
2023-03-02T18:28:34.430Z,58.88
2023-03-02T18:30:06.607Z,52.13
2023-03-02T18:31:38.523Z,55.10
2023-03-02T18:33:10.352Z,61.05
2023-03-02T18:34:42.640Z,64.88
2023-03-02T18:36:14.518Z,62.53
2023-03-02T18:37:46.260Z,66.57
2023-03-02T18:39:18.003Z,59.53
2023-03-02T18:40:49.711Z,60.88
2023-03-02T18:42:22.460Z,54.83
2023-03-02T18:43:54.166Z,51.42
2023-03-02T18:45:28.828Z,49.10
2023-03-02T18:47:01.012Z,52.72
2023-03-02T18:48:33.107Z,51.60
2023-03-02T18:50:05.220Z,55.85
2023-03-02T18:51:36.951Z,54.63
2023-03-02T18:53:08.644Z,53.65
2023-03-02T18:54:40.466Z,50.60
2023-03-02T18:56:12.697Z,51.70
2023-03-02T18:57:44.781Z,51.13
2023-03-02T18:59:17.850Z,53.30
2023-03-02T19:00:49.854Z,50.95
2023-03-02T19:02:21.592Z,51.67
2023-03-02T19:03:56.937Z,48.20
2023-03-02T19:05:29.692Z,57.95
2023-03-02T19:07:02.933Z,50.33
2023-03-02T19:08:36.376Z,61.78
2023-03-02T19:10:09.021Z,55.28
2023-03-02T19:11:40.715Z,50.08
2023-03-02T19:13:12.546Z,51.58
2023-03-02T19:14:44.514Z,59.33
2023-03-02T19:16:18.233Z,51.97
2023-03-02T19:17:51.762Z,56.00
2023-03-02T19:19:23.540Z,51.38
2023-03-02T19:20:55.802Z,49.08
2023-03-02T19:22:27.589Z,49.80
2023-03-02T19:23:59.313Z,53.70
2023-03-02T19:25:31.121Z,52.42
2023-03-02T19:27:02.863Z,48.28
2023-03-02T19:28:35.089Z,56.83
2023-03-02T19:30:08.870Z,48.92
2023-03-02T19:31:40.838Z,50.15
2023-03-02T19:33:12.599Z,47.63
2023-03-02T19:34:44.402Z,49.65
2023-03-02T19:36:16.154Z,59.80
2023-03-02T19:37:47.846Z,52.80
2023-03-02T19:39:19.657Z,51.38
2023-03-02T19:40:51.354Z,51.95
2023-03-02T19:42:23.077Z,54.88
2023-03-02T19:43:54.918Z,63.40
2023-03-02T19:45:29.650Z,48.30
2023-03-02T19:47:01.540Z,53.47
2023-03-02T19:48:35.667Z,51.58
2023-03-02T19:50:08.342Z,52.92
2023-03-02T19:51:40.102Z,51.33
2023-03-02T19:53:12.437Z,58.67
2023-03-02T19:54:44.121Z,56.58
2023-03-02T19:56:16.464Z,56.63
2023-03-02T19:57:51.484Z,58.83
2023-03-02T19:59:24.468Z,53.80
2023-03-02T20:00:56.401Z,56.83
2023-03-02T20:02:28.133Z,55.42
2023-03-02T20:04:00.211Z,52.15
2023-03-02T20:05:31.996Z,60.58
2023-03-02T20:07:03.833Z,53.08
2023-03-02T20:08:35.854Z,54.65
2023-03-02T20:10:09.254Z,58.72
2023-03-02T20:11:41.202Z,56.35
2023-03-02T20:13:13.061Z,62.30
2023-03-02T20:14:49.300Z,124.10
2023-03-02T20:16:22.919Z,130.55
2023-03-02T20:17:54.866Z,118.55
2023-03-02T20:19:26.705Z,113.75
2023-03-02T20:20:58.456Z,105.45
2023-03-02T20:22:30.241Z,87.50
2023-03-02T20:24:02.299Z,81.78
2023-03-02T20:25:34.584Z,80.22